SKSP

Gustavo Rojas Pinilla International Airport

San Andrés, Colombia
TAF SKSP 202300Z 2100/2124 07015KT 9999 FEW017 TX32/2119Z TN25/2111Z
Issued Valid From Valid To
Apr-20 @ 23:00 UTC
(5 hours ago)
Apr-21 @ 00:00 UTC
(4 hours ago)
Apr-22 @ 00:00 UTC
(in 20 hours)
Apr-21 @ 00:00 to Apr-22 @ 00:00
TAF SKSP 202300Z 2100/2124 07015KT 9999 FEW017 TX32/2119Z TN25/2111Z
Wind Visibility Clouds
70° at 15 knots 10,000+ meters
  • Few at 1,700' AGL
TAF SKSP 202300Z 2100/2124 07015KT 9999 FEW017 TX32/2119Z TN25/2111Z
Issued Apr-20 @ 23:00 UTC
(5 hours ago)
Valid From Apr-21 @ 00:00 UTC
(4 hours ago)
Valid To Apr-22 @ 00:00 UTC
(in 20 hours)
Apr-21 @ 00:00 - Apr-22 @ 00:00
Wind Visibility
70° at 15 knots 10,000+ meters
Clouds
  • Few at 1,700' AGL